sensor_id;sensor_type;location;lat;lon;timestamp;P1;durP1;ratioP1;P2;durP2;ratioP2
15818;SDS011;8010;53.986;12.106;2022-12-15T00:02:03;11.97;;;7.20;;
15818;SDS011;8010;53.986;12.106;2022-12-15T00:04:48;13.50;;;7.27;;
15818;SDS011;8010;53.986;12.106;2022-12-15T00:07:32;12.93;;;8.50;;
15818;SDS011;8010;53.986;12.106;2022-12-15T00:10:17;11.70;;;7.37;;
15818;SDS011;8010;53.986;12.106;2022-12-15T00:13:02;14.80;;;8.70;;
15818;SDS011;8010;53.986;12.106;2022-12-15T00:15:52;18.67;;;8.70;;
15818;SDS011;8010;53.986;12.106;2022-12-15T00:18:36;16.03;;;8.70;;
15818;SDS011;8010;53.986;12.106;2022-12-15T00:21:20;11.70;;;6.00;;
15818;SDS011;8010;53.986;12.106;2022-12-15T00:24:04;9.53;;;6.23;;
15818;SDS011;8010;53.986;12.106;2022-12-15T00:26:49;14.20;;;8.33;;
15818;SDS011;8010;53.986;12.106;2022-12-15T00:29:33;14.03;;;6.93;;
15818;SDS011;8010;53.986;12.106;2022-12-15T00:32:17;16.00;;;7.73;;
15818;SDS011;8010;53.986;12.106;2022-12-15T00:35:01;20.03;;;9.40;;
15818;SDS011;8010;53.986;12.106;2022-12-15T00:37:45;13.57;;;7.50;;
15818;SDS011;8010;53.986;12.106;2022-12-15T00:40:29;16.33;;;8.97;;
15818;SDS011;8010;53.986;12.106;2022-12-15T00:42:54;18.00;;;9.03;;
15818;SDS011;8010;53.986;12.106;2022-12-15T00:45:20;13.70;;;8.57;;
15818;SDS011;8010;53.986;12.106;2022-12-15T00:48:05;16.60;;;9.77;;
15818;SDS011;8010;53.986;12.106;2022-12-15T00:50:31;14.90;;;8.27;;
15818;SDS011;8010;53.986;12.106;2022-12-15T00:53:15;14.73;;;8.03;;
15818;SDS011;8010;53.986;12.106;2022-12-15T00:55:59;18.93;;;9.47;;
15818;SDS011;8010;53.986;12.106;2022-12-15T00:58:43;14.47;;;8.00;;
15818;SDS011;8010;53.986;12.106;2022-12-15T01:01:27;12.77;;;8.20;;
15818;SDS011;8010;53.986;12.106;2022-12-15T01:04:11;9.97;;;6.20;;
15818;SDS011;8010;53.986;12.106;2022-12-15T01:06:55;12.47;;;6.60;;
15818;SDS011;8010;53.986;12.106;2022-12-15T01:09:39;14.87;;;8.43;;
15818;SDS011;8010;53.986;12.106;2022-12-15T01:12:23;13.37;;;7.37;;
15818;SDS011;8010;53.986;12.106;2022-12-15T01:15:07;10.50;;;7.27;;
15818;SDS011;8010;53.986;12.106;2022-12-15T01:17:52;18.33;;;8.80;;
15818;SDS011;8010;53.986;12.106;2022-12-15T01:20:36;15.00;;;8.93;;
15818;SDS011;8010;53.986;12.106;2022-12-15T01:23:01;12.57;;;8.10;;
15818;SDS011;8010;53.986;12.106;2022-12-15T01:25:27;21.57;;;10.80;;
15818;SDS011;8010;53.986;12.106;2022-12-15T01:27:53;15.87;;;8.63;;
15818;SDS011;8010;53.986;12.106;2022-12-15T01:30:23;16.40;;;8.13;;
15818;SDS011;8010;53.986;12.106;2022-12-15T01:32:50;12.57;;;7.27;;
15818;SDS011;8010;53.986;12.106;2022-12-15T01:35:16;20.80;;;11.43;;
15818;SDS011;8010;53.986;12.106;2022-12-15T01:37:42;17.23;;;8.17;;
15818;SDS011;8010;53.986;12.106;2022-12-15T01:40:11;22.47;;;10.47;;
15818;SDS011;8010;53.986;12.106;2022-12-15T01:42:57;16.60;;;8.27;;
15818;SDS011;8010;53.986;12.106;2022-12-15T01:47:55;13.80;;;8.20;;
15818;SDS011;8010;53.986;12.106;2022-12-15T01:50:29;14.73;;;8.57;;
15818;SDS011;8010;53.986;12.106;2022-12-15T01:52:56;18.90;;;9.93;;
15818;SDS011;8010;53.986;12.106;2022-12-15T01:55:23;15.03;;;8.63;;
15818;SDS011;8010;53.986;12.106;2022-12-15T01:57:51;20.37;;;9.67;;
15818;SDS011;8010;53.986;12.106;2022-12-15T02:00:21;9.03;;;6.37;;
15818;SDS011;8010;53.986;12.106;2022-12-15T02:02:46;17.30;;;10.47;;
15818;SDS011;8010;53.986;12.106;2022-12-15T02:05:12;12.03;;;8.20;;
15818;SDS011;8010;53.986;12.106;2022-12-15T02:07:38;17.83;;;9.27;;
15818;SDS011;8010;53.986;12.106;2022-12-15T02:10:04;14.47;;;7.47;;
15818;SDS011;8010;53.986;12.106;2022-12-15T02:20:56;9.13;;;6.17;;
15818;SDS011;8010;53.986;12.106;2022-12-15T02:23:52;8.97;;;5.70;;
15818;SDS011;8010;53.986;12.106;2022-12-15T02:26:52;6.50;;;5.67;;
15818;SDS011;8010;53.986;12.106;2022-12-15T02:32:29;14.73;;;8.17;;
15818;SDS011;8010;53.986;12.106;2022-12-15T02:35:02;14.07;;;7.77;;
15818;SDS011;8010;53.986;12.106;2022-12-15T02:37:34;6.67;;;4.50;;
15818;SDS011;8010;53.986;12.106;2022-12-15T02:40:02;19.17;;;10.10;;
15818;SDS011;8010;53.986;12.106;2022-12-15T02:42:30;15.13;;;8.77;;
15818;SDS011;8010;53.986;12.106;2022-12-15T02:44:59;10.63;;;6.93;;
15818;SDS011;8010;53.986;12.106;2022-12-15T02:50:23;16.93;;;7.73;;
15818;SDS011;8010;53.986;12.106;2022-12-15T02:55:57;4.20;;;3.70;;
15818;SDS011;8010;53.986;12.106;2022-12-15T03:01:12;8.73;;;5.40;;
15818;SDS011;8010;53.986;12.106;2022-12-15T03:03:44;12.30;;;6.07;;
15818;SDS011;8010;53.986;12.106;2022-12-15T03:06:12;12.93;;;8.13;;
15818;SDS011;8010;53.986;12.106;2022-12-15T03:08:38;10.97;;;5.60;;
15818;SDS011;8010;53.986;12.106;2022-12-15T03:11:03;12.83;;;7.73;;
15818;SDS011;8010;53.986;12.106;2022-12-15T03:13:29;16.63;;;9.37;;
15818;SDS011;8010;53.986;12.106;2022-12-15T03:15:55;19.37;;;9.87;;
15818;SDS011;8010;53.986;12.106;2022-12-15T03:18:22;13.33;;;8.27;;
15818;SDS011;8010;53.986;12.106;2022-12-15T03:20:47;12.90;;;7.60;;
15818;SDS011;8010;53.986;12.106;2022-12-15T03:23:13;18.13;;;8.30;;
15818;SDS011;8010;53.986;12.106;2022-12-15T03:25:38;16.90;;;8.67;;
15818;SDS011;8010;53.986;12.106;2022-12-15T03:28:04;16.03;;;9.57;;
15818;SDS011;8010;53.986;12.106;2022-12-15T03:30:30;13.47;;;7.40;;
15818;SDS011;8010;53.986;12.106;2022-12-15T03:32:55;17.60;;;7.50;;
15818;SDS011;8010;53.986;12.106;2022-12-15T03:35:21;12.77;;;6.83;;
15818;SDS011;8010;53.986;12.106;2022-12-15T03:37:47;11.10;;;6.40;;
15818;SDS011;8010;53.986;12.106;2022-12-15T03:40:12;11.50;;;7.60;;
15818;SDS011;8010;53.986;12.106;2022-12-15T03:42:38;12.63;;;7.57;;
15818;SDS011;8010;53.986;12.106;2022-12-15T03:45:13;13.57;;;8.33;;
15818;SDS011;8010;53.986;12.106;2022-12-15T03:47:40;12.47;;;8.03;;
15818;SDS011;8010;53.986;12.106;2022-12-15T03:50:06;16.30;;;8.67;;
15818;SDS011;8010;53.986;12.106;2022-12-15T03:52:33;13.77;;;7.90;;
15818;SDS011;8010;53.986;12.106;2022-12-15T03:54:58;18.13;;;6.80;;
15818;SDS011;8010;53.986;12.106;2022-12-15T03:57:24;9.60;;;7.00;;
15818;SDS011;8010;53.986;12.106;2022-12-15T03:59:49;17.57;;;8.27;;
15818;SDS011;8010;53.986;12.106;2022-12-15T04:02:15;19.50;;;10.60;;
15818;SDS011;8010;53.986;12.106;2022-12-15T04:04:41;30.73;;;11.70;;
15818;SDS011;8010;53.986;12.106;2022-12-15T04:07:06;9.80;;;6.97;;
15818;SDS011;8010;53.986;12.106;2022-12-15T04:09:33;19.83;;;9.67;;
15818;SDS011;8010;53.986;12.106;2022-12-15T04:11:59;14.60;;;8.27;;
15818;SDS011;8010;53.986;12.106;2022-12-15T04:14:27;17.93;;;9.70;;
15818;SDS011;8010;53.986;12.106;2022-12-15T04:16:53;19.47;;;9.30;;
15818;SDS011;8010;53.986;12.106;2022-12-15T04:19:19;16.03;;;10.17;;
15818;SDS011;8010;53.986;12.106;2022-12-15T04:22:03;12.93;;;8.33;;
15818;SDS011;8010;53.986;12.106;2022-12-15T04:24:29;17.80;;;10.23;;
15818;SDS011;8010;53.986;12.106;2022-12-15T04:27:13;13.83;;;7.63;;
15818;SDS011;8010;53.986;12.106;2022-12-15T04:29:57;13.47;;;7.67;;
15818;SDS011;8010;53.986;12.106;2022-12-15T04:32:41;12.90;;;7.33;;
15818;SDS011;8010;53.986;12.106;2022-12-15T04:35:26;14.63;;;9.57;;
15818;SDS011;8010;53.986;12.106;2022-12-15T04:38:10;16.43;;;9.33;;
15818;SDS011;8010;53.986;12.106;2022-12-15T04:40:54;15.07;;;8.07;;
15818;SDS011;8010;53.986;12.106;2022-12-15T04:43:38;13.80;;;8.83;;
15818;SDS011;8010;53.986;12.106;2022-12-15T04:46:22;9.87;;;5.37;;
15818;SDS011;8010;53.986;12.106;2022-12-15T04:49:07;13.27;;;7.70;;
15818;SDS011;8010;53.986;12.106;2022-12-15T04:51:50;18.73;;;10.43;;
15818;SDS011;8010;53.986;12.106;2022-12-15T04:54:34;15.70;;;9.37;;
15818;SDS011;8010;53.986;12.106;2022-12-15T04:57:18;20.43;;;9.60;;
15818;SDS011;8010;53.986;12.106;2022-12-15T05:00:03;12.57;;;7.43;;
15818;SDS011;8010;53.986;12.106;2022-12-15T05:02:47;15.27;;;9.40;;
15818;SDS011;8010;53.986;12.106;2022-12-15T05:05:32;11.87;;;7.20;;
15818;SDS011;8010;53.986;12.106;2022-12-15T05:08:16;15.47;;;8.93;;
15818;SDS011;8010;53.986;12.106;2022-12-15T05:11:00;15.00;;;7.57;;
15818;SDS011;8010;53.986;12.106;2022-12-15T05:13:44;14.87;;;8.20;;
15818;SDS011;8010;53.986;12.106;2022-12-15T05:16:28;17.33;;;10.30;;
15818;SDS011;8010;53.986;12.106;2022-12-15T05:19:12;15.63;;;8.23;;
15818;SDS011;8010;53.986;12.106;2022-12-15T05:21:56;13.77;;;8.63;;
15818;SDS011;8010;53.986;12.106;2022-12-15T05:24:40;7.50;;;3.67;;
15818;SDS011;8010;53.986;12.106;2022-12-15T05:27:24;9.13;;;5.87;;
15818;SDS011;8010;53.986;12.106;2022-12-15T05:30:09;12.63;;;7.97;;
15818;SDS011;8010;53.986;12.106;2022-12-15T05:32:53;8.47;;;6.90;;
15818;SDS011;8010;53.986;12.106;2022-12-15T05:35:18;10.07;;;6.97;;
15818;SDS011;8010;53.986;12.106;2022-12-15T05:37:44;9.50;;;5.20;;
15818;SDS011;8010;53.986;12.106;2022-12-15T05:40:10;14.00;;;8.50;;
15818;SDS011;8010;53.986;12.106;2022-12-15T05:42:35;6.57;;;4.50;;
15818;SDS011;8010;53.986;12.106;2022-12-15T05:45:01;14.67;;;8.37;;
15818;SDS011;8010;53.986;12.106;2022-12-15T05:47:27;13.20;;;7.33;;
15818;SDS011;8010;53.986;12.106;2022-12-15T05:49:52;16.80;;;8.60;;
15818;SDS011;8010;53.986;12.106;2022-12-15T05:52:18;4.70;;;3.40;;
15818;SDS011;8010;53.986;12.106;2022-12-15T05:54:43;18.00;;;8.17;;
15818;SDS011;8010;53.986;12.106;2022-12-15T05:57:09;16.80;;;7.13;;
15818;SDS011;8010;53.986;12.106;2022-12-15T05:59:34;12.73;;;6.60;;
15818;SDS011;8010;53.986;12.106;2022-12-15T06:02:00;15.27;;;8.03;;
15818;SDS011;8010;53.986;12.106;2022-12-15T06:04:25;12.23;;;7.97;;
15818;SDS011;8010;53.986;12.106;2022-12-15T06:06:51;12.63;;;6.90;;
15818;SDS011;8010;53.986;12.106;2022-12-15T06:09:16;15.17;;;8.57;;
15818;SDS011;8010;53.986;12.106;2022-12-15T06:11:42;12.97;;;6.97;;
15818;SDS011;8010;53.986;12.106;2022-12-15T06:14:08;10.37;;;3.87;;
15818;SDS011;8010;53.986;12.106;2022-12-15T06:16:34;8.30;;;5.80;;
15818;SDS011;8010;53.986;12.106;2022-12-15T06:19:00;9.87;;;5.13;;
15818;SDS011;8010;53.986;12.106;2022-12-15T06:21:28;6.00;;;4.73;;
15818;SDS011;8010;53.986;12.106;2022-12-15T06:23:56;13.80;;;6.40;;
15818;SDS011;8010;53.986;12.106;2022-12-15T06:28:57;7.93;;;5.63;;
15818;SDS011;8010;53.986;12.106;2022-12-15T06:31:26;6.37;;;4.37;;
15818;SDS011;8010;53.986;12.106;2022-12-15T06:33:53;3.80;;;3.37;;
15818;SDS011;8010;53.986;12.106;2022-12-15T06:36:19;9.43;;;6.43;;
15818;SDS011;8010;53.986;12.106;2022-12-15T06:38:47;11.50;;;6.73;;
15818;SDS011;8010;53.986;12.106;2022-12-15T06:41:14;11.73;;;5.40;;
15818;SDS011;8010;53.986;12.106;2022-12-15T06:43:42;16.67;;;7.77;;
15818;SDS011;8010;53.986;12.106;2022-12-15T06:46:12;12.13;;;6.37;;
15818;SDS011;8010;53.986;12.106;2022-12-15T06:48:38;11.70;;;5.43;;
15818;SDS011;8010;53.986;12.106;2022-12-15T06:51:05;7.03;;;5.27;;
15818;SDS011;8010;53.986;12.106;2022-12-15T06:53:34;4.43;;;3.87;;
15818;SDS011;8010;53.986;12.106;2022-12-15T06:56:01;12.53;;;9.23;;
15818;SDS011;8010;53.986;12.106;2022-12-15T06:58:27;12.93;;;6.90;;
15818;SDS011;8010;53.986;12.106;2022-12-15T07:00:53;12.10;;;6.57;;
15818;SDS011;8010;53.986;12.106;2022-12-15T07:03:19;15.23;;;6.50;;
15818;SDS011;8010;53.986;12.106;2022-12-15T07:05:45;7.57;;;4.93;;
15818;SDS011;8010;53.986;12.106;2022-12-15T07:08:11;10.67;;;5.67;;
15818;SDS011;8010;53.986;12.106;2022-12-15T07:10:41;15.93;;;9.10;;
15818;SDS011;8010;53.986;12.106;2022-12-15T07:13:11;8.13;;;5.23;;
15818;SDS011;8010;53.986;12.106;2022-12-15T07:15:37;15.57;;;9.23;;
15818;SDS011;8010;53.986;12.106;2022-12-15T07:18:03;12.90;;;7.90;;
15818;SDS011;8010;53.986;12.106;2022-12-15T07:20:29;13.07;;;7.47;;
15818;SDS011;8010;53.986;12.106;2022-12-15T07:22:55;15.60;;;7.73;;
15818;SDS011;8010;53.986;12.106;2022-12-15T07:25:21;15.47;;;8.57;;
15818;SDS011;8010;53.986;12.106;2022-12-15T07:27:46;5.97;;;4.93;;
15818;SDS011;8010;53.986;12.106;2022-12-15T07:30:13;10.03;;;6.97;;
15818;SDS011;8010;53.986;12.106;2022-12-15T07:32:39;12.90;;;7.53;;
15818;SDS011;8010;53.986;12.106;2022-12-15T07:35:06;4.97;;;4.23;;
15818;SDS011;8010;53.986;12.106;2022-12-15T07:37:32;12.57;;;8.60;;
15818;SDS011;8010;53.986;12.106;2022-12-15T07:39:58;13.47;;;8.43;;
15818;SDS011;8010;53.986;12.106;2022-12-15T07:42:24;16.77;;;8.80;;
15818;SDS011;8010;53.986;12.106;2022-12-15T07:44:54;15.43;;;8.67;;
15818;SDS011;8010;53.986;12.106;2022-12-15T07:47:19;16.13;;;9.27;;
15818;SDS011;8010;53.986;12.106;2022-12-15T07:49:45;16.43;;;9.27;;
15818;SDS011;8010;53.986;12.106;2022-12-15T07:52:11;12.90;;;7.43;;
15818;SDS011;8010;53.986;12.106;2022-12-15T07:54:38;15.63;;;8.17;;
15818;SDS011;8010;53.986;12.106;2022-12-15T07:57:03;16.47;;;9.00;;
15818;SDS011;8010;53.986;12.106;2022-12-15T07:59:31;20.87;;;10.67;;
15818;SDS011;8010;53.986;12.106;2022-12-15T08:02:00;16.93;;;8.97;;
15818;SDS011;8010;53.986;12.106;2022-12-15T08:04:28;16.17;;;9.70;;
15818;SDS011;8010;53.986;12.106;2022-12-15T08:06:56;15.37;;;8.47;;
15818;SDS011;8010;53.986;12.106;2022-12-15T08:09:23;16.43;;;8.77;;
15818;SDS011;8010;53.986;12.106;2022-12-15T08:11:49;14.30;;;8.90;;
15818;SDS011;8010;53.986;12.106;2022-12-15T08:14:14;16.30;;;7.73;;
15818;SDS011;8010;53.986;12.106;2022-12-15T08:16:41;16.07;;;8.17;;
15818;SDS011;8010;53.986;12.106;2022-12-15T08:19:08;13.80;;;9.27;;
15818;SDS011;8010;53.986;12.106;2022-12-15T08:21:35;14.47;;;8.60;;
15818;SDS011;8010;53.986;12.106;2022-12-15T08:24:04;15.30;;;8.97;;
15818;SDS011;8010;53.986;12.106;2022-12-15T08:26:31;10.47;;;6.37;;
15818;SDS011;8010;53.986;12.106;2022-12-15T08:29:01;16.47;;;9.00;;
15818;SDS011;8010;53.986;12.106;2022-12-15T08:31:31;21.27;;;9.57;;
15818;SDS011;8010;53.986;12.106;2022-12-15T08:33:58;23.13;;;10.30;;
15818;SDS011;8010;53.986;12.106;2022-12-15T08:36:24;18.83;;;8.63;;
15818;SDS011;8010;53.986;12.106;2022-12-15T08:38:50;10.27;;;7.40;;
15818;SDS011;8010;53.986;12.106;2022-12-15T08:41:16;21.90;;;10.03;;
15818;SDS011;8010;53.986;12.106;2022-12-15T08:43:43;16.33;;;9.70;;
15818;SDS011;8010;53.986;12.106;2022-12-15T08:46:09;17.70;;;9.97;;
15818;SDS011;8010;53.986;12.106;2022-12-15T08:48:36;13.57;;;8.07;;
15818;SDS011;8010;53.986;12.106;2022-12-15T08:51:02;8.13;;;5.73;;
15818;SDS011;8010;53.986;12.106;2022-12-15T08:53:27;11.93;;;6.60;;
15818;SDS011;8010;53.986;12.106;2022-12-15T08:55:53;12.90;;;6.70;;
15818;SDS011;8010;53.986;12.106;2022-12-15T08:58:19;19.80;;;10.07;;
15818;SDS011;8010;53.986;12.106;2022-12-15T09:00:44;18.07;;;9.03;;
15818;SDS011;8010;53.986;12.106;2022-12-15T09:03:10;15.33;;;8.23;;
15818;SDS011;8010;53.986;12.106;2022-12-15T09:05:36;17.37;;;9.43;;
15818;SDS011;8010;53.986;12.106;2022-12-15T09:08:02;13.37;;;7.00;;
15818;SDS011;8010;53.986;12.106;2022-12-15T09:10:28;13.43;;;7.57;;
15818;SDS011;8010;53.986;12.106;2022-12-15T09:12:54;11.87;;;6.17;;
15818;SDS011;8010;53.986;12.106;2022-12-15T09:15:20;7.90;;;5.20;;
15818;SDS011;8010;53.986;12.106;2022-12-15T09:17:46;14.43;;;8.83;;
15818;SDS011;8010;53.986;12.106;2022-12-15T09:20:12;14.10;;;8.33;;
15818;SDS011;8010;53.986;12.106;2022-12-15T09:22:38;17.10;;;9.37;;
15818;SDS011;8010;53.986;12.106;2022-12-15T09:25:05;19.23;;;10.67;;
15818;SDS011;8010;53.986;12.106;2022-12-15T09:27:30;20.70;;;10.43;;
15818;SDS011;8010;53.986;12.106;2022-12-15T09:29:56;19.27;;;10.03;;
15818;SDS011;8010;53.986;12.106;2022-12-15T09:32:22;20.93;;;10.67;;
15818;SDS011;8010;53.986;12.106;2022-12-15T09:34:51;17.77;;;9.27;;
15818;SDS011;8010;53.986;12.106;2022-12-15T09:37:18;16.63;;;9.07;;
15818;SDS011;8010;53.986;12.106;2022-12-15T09:39:44;20.23;;;10.93;;
15818;SDS011;8010;53.986;12.106;2022-12-15T09:45:14;14.53;;;8.00;;
15818;SDS011;8010;53.986;12.106;2022-12-15T09:50:36;14.63;;;7.83;;
15818;SDS011;8010;53.986;12.106;2022-12-15T09:53:03;13.80;;;8.97;;
15818;SDS011;8010;53.986;12.106;2022-12-15T09:55:33;18.00;;;9.47;;
15818;SDS011;8010;53.986;12.106;2022-12-15T09:57:59;10.23;;;6.00;;
15818;SDS011;8010;53.986;12.106;2022-12-15T10:00:39;15.17;;;8.80;;
15818;SDS011;8010;53.986;12.106;2022-12-15T10:03:31;16.30;;;10.27;;
15818;SDS011;8010;53.986;12.106;2022-12-15T10:06:10;15.03;;;8.67;;
15818;SDS011;8010;53.986;12.106;2022-12-15T10:19:43;15.37;;;8.00;;
15818;SDS011;8010;53.986;12.106;2022-12-15T10:22:14;17.70;;;9.83;;
15818;SDS011;8010;53.986;12.106;2022-12-15T10:24:45;15.50;;;8.20;;
15818;SDS011;8010;53.986;12.106;2022-12-15T10:27:30;14.07;;;8.83;;
15818;SDS011;8010;53.986;12.106;2022-12-15T10:30:07;15.03;;;8.43;;
15818;SDS011;8010;53.986;12.106;2022-12-15T10:32:43;18.13;;;8.60;;
15818;SDS011;8010;53.986;12.106;2022-12-15T10:35:15;17.97;;;9.57;;
15818;SDS011;8010;53.986;12.106;2022-12-15T10:37:51;16.67;;;9.43;;
15818;SDS011;8010;53.986;12.106;2022-12-15T10:40:41;17.53;;;9.57;;
15818;SDS011;8010;53.986;12.106;2022-12-15T10:43:14;17.07;;;10.47;;
15818;SDS011;8010;53.986;12.106;2022-12-15T10:45:58;16.47;;;9.43;;
15818;SDS011;8010;53.986;12.106;2022-12-15T10:48:48;18.80;;;10.43;;
15818;SDS011;8010;53.986;12.106;2022-12-15T10:51:19;20.23;;;10.63;;
15818;SDS011;8010;53.986;12.106;2022-12-15T10:59:23;18.90;;;11.27;;
15818;SDS011;8010;53.986;12.106;2022-12-15T11:07:22;21.67;;;11.00;;
15818;SDS011;8010;53.986;12.106;2022-12-15T11:09:50;21.77;;;11.20;;
15818;SDS011;8010;53.986;12.106;2022-12-15T11:12:23;19.90;;;10.23;;
15818;SDS011;8010;53.986;12.106;2022-12-15T11:20:26;21.67;;;11.40;;
15818;SDS011;8010;53.986;12.106;2022-12-15T11:23:03;17.97;;;10.97;;
15818;SDS011;8010;53.986;12.106;2022-12-15T11:25:49;16.90;;;9.33;;
15818;SDS011;8010;53.986;12.106;2022-12-15T11:28:22;19.97;;;9.73;;
15818;SDS011;8010;53.986;12.106;2022-12-15T11:31:16;19.60;;;12.10;;
15818;SDS011;8010;53.986;12.106;2022-12-15T11:33:42;20.43;;;10.43;;
15818;SDS011;8010;53.986;12.106;2022-12-15T11:36:12;18.13;;;10.83;;
15818;SDS011;8010;53.986;12.106;2022-12-15T11:38:50;19.80;;;10.37;;
15818;SDS011;8010;53.986;12.106;2022-12-15T11:41:26;20.97;;;10.57;;
15818;SDS011;8010;53.986;12.106;2022-12-15T11:44:23;15.90;;;7.87;;
15818;SDS011;8010;53.986;12.106;2022-12-15T11:46:56;19.67;;;10.63;;
15818;SDS011;8010;53.986;12.106;2022-12-15T11:52:00;17.07;;;9.50;;
15818;SDS011;8010;53.986;12.106;2022-12-15T12:02:41;19.50;;;11.23;;
15818;SDS011;8010;53.986;12.106;2022-12-15T12:05:16;19.53;;;10.33;;
15818;SDS011;8010;53.986;12.106;2022-12-15T12:10:35;18.67;;;11.07;;
15818;SDS011;8010;53.986;12.106;2022-12-15T12:18:34;19.23;;;10.57;;
15818;SDS011;8010;53.986;12.106;2022-12-15T12:21:23;18.37;;;10.27;;
15818;SDS011;8010;53.986;12.106;2022-12-15T12:23:58;21.60;;;10.63;;
15818;SDS011;8010;53.986;12.106;2022-12-15T12:29:02;19.10;;;10.07;;
15818;SDS011;8010;53.986;12.106;2022-12-15T12:34:25;23.43;;;11.67;;
15818;SDS011;8010;53.986;12.106;2022-12-15T12:40:06;21.53;;;10.30;;
15818;SDS011;8010;53.986;12.106;2022-12-15T12:42:45;17.67;;;10.20;;
15818;SDS011;8010;53.986;12.106;2022-12-15T12:45:23;17.90;;;9.33;;
15818;SDS011;8010;53.986;12.106;2022-12-15T12:47:53;17.87;;;9.83;;
15818;SDS011;8010;53.986;12.106;2022-12-15T12:50:22;16.10;;;9.27;;
15818;SDS011;8010;53.986;12.106;2022-12-15T12:52:54;16.30;;;9.20;;
15818;SDS011;8010;53.986;12.106;2022-12-15T12:55:40;19.13;;;10.37;;
15818;SDS011;8010;53.986;12.106;2022-12-15T13:03:39;18.60;;;9.57;;
15818;SDS011;8010;53.986;12.106;2022-12-15T13:06:55;19.43;;;10.10;;
15818;SDS011;8010;53.986;12.106;2022-12-15T13:09:35;15.03;;;9.43;;
15818;SDS011;8010;53.986;12.106;2022-12-15T13:12:01;17.13;;;8.83;;
15818;SDS011;8010;53.986;12.106;2022-12-15T13:17:25;17.33;;;10.30;;
15818;SDS011;8010;53.986;12.106;2022-12-15T13:25:01;20.47;;;10.90;;
15818;SDS011;8010;53.986;12.106;2022-12-15T13:27:49;19.90;;;10.40;;
15818;SDS011;8010;53.986;12.106;2022-12-15T13:30:16;22.17;;;10.70;;
15818;SDS011;8010;53.986;12.106;2022-12-15T13:32:43;23.13;;;10.83;;
15818;SDS011;8010;53.986;12.106;2022-12-15T13:37:54;18.37;;;9.73;;
15818;SDS011;8010;53.986;12.106;2022-12-15T13:50:55;19.67;;;9.53;;
15818;SDS011;8010;53.986;12.106;2022-12-15T13:53:27;17.83;;;9.80;;
15818;SDS011;8010;53.986;12.106;2022-12-15T13:56:05;21.03;;;11.73;;
15818;SDS011;8010;53.986;12.106;2022-12-15T13:59:05;22.57;;;10.83;;
15818;SDS011;8010;53.986;12.106;2022-12-15T14:01:50;20.03;;;9.93;;
15818;SDS011;8010;53.986;12.106;2022-12-15T14:04:17;17.03;;;10.37;;
15818;SDS011;8010;53.986;12.106;2022-12-15T14:09:34;16.00;;;8.77;;
15818;SDS011;8010;53.986;12.106;2022-12-15T14:12:05;19.87;;;10.87;;
15818;SDS011;8010;53.986;12.106;2022-12-15T14:14:36;17.07;;;9.73;;
15818;SDS011;8010;53.986;12.106;2022-12-15T14:17:10;16.53;;;9.43;;
15818;SDS011;8010;53.986;12.106;2022-12-15T14:19:40;15.93;;;9.43;;
15818;SDS011;8010;53.986;12.106;2022-12-15T14:22:31;16.47;;;9.63;;
15818;SDS011;8010;53.986;12.106;2022-12-15T14:25:01;15.33;;;8.83;;
15818;SDS011;8010;53.986;12.106;2022-12-15T14:27:37;19.37;;;11.87;;
15818;SDS011;8010;53.986;12.106;2022-12-15T14:30:22;19.67;;;11.03;;
15818;SDS011;8010;53.986;12.106;2022-12-15T14:35:29;22.20;;;11.03;;
15818;SDS011;8010;53.986;12.106;2022-12-15T14:38:00;15.13;;;9.87;;
15818;SDS011;8010;53.986;12.106;2022-12-15T14:40:29;14.73;;;9.73;;
15818;SDS011;8010;53.986;12.106;2022-12-15T14:42:58;18.93;;;10.57;;
15818;SDS011;8010;53.986;12.106;2022-12-15T14:45:24;19.83;;;11.23;;
15818;SDS011;8010;53.986;12.106;2022-12-15T14:47:52;16.40;;;9.40;;
15818;SDS011;8010;53.986;12.106;2022-12-15T14:50:21;18.33;;;10.40;;
15818;SDS011;8010;53.986;12.106;2022-12-15T14:52:51;19.03;;;10.23;;
15818;SDS011;8010;53.986;12.106;2022-12-15T14:58:02;16.77;;;10.33;;
15818;SDS011;8010;53.986;12.106;2022-12-15T15:00:59;13.77;;;9.03;;
15818;SDS011;8010;53.986;12.106;2022-12-15T15:03:33;17.93;;;10.60;;
15818;SDS011;8010;53.986;12.106;2022-12-15T15:06:02;20.13;;;10.63;;
15818;SDS011;8010;53.986;12.106;2022-12-15T15:08:29;21.07;;;12.03;;
15818;SDS011;8010;53.986;12.106;2022-12-15T15:16:44;18.77;;;10.67;;
15818;SDS011;8010;53.986;12.106;2022-12-15T15:19:27;17.47;;;10.40;;
15818;SDS011;8010;53.986;12.106;2022-12-15T15:21:53;19.43;;;12.53;;
15818;SDS011;8010;53.986;12.106;2022-12-15T15:24:23;22.27;;;11.47;;
15818;SDS011;8010;53.986;12.106;2022-12-15T15:26:53;20.07;;;11.07;;
15818;SDS011;8010;53.986;12.106;2022-12-15T15:29:38;18.13;;;10.93;;
15818;SDS011;8010;53.986;12.106;2022-12-15T15:32:18;19.40;;;10.17;;
15818;SDS011;8010;53.986;12.106;2022-12-15T15:34:45;23.47;;;12.60;;
15818;SDS011;8010;53.986;12.106;2022-12-15T15:37:15;20.27;;;11.73;;
15818;SDS011;8010;53.986;12.106;2022-12-15T15:39:46;18.70;;;10.43;;
15818;SDS011;8010;53.986;12.106;2022-12-15T15:42:13;16.37;;;9.97;;
15818;SDS011;8010;53.986;12.106;2022-12-15T15:44:39;18.27;;;11.30;;
15818;SDS011;8010;53.986;12.106;2022-12-15T15:47:04;21.70;;;12.63;;
15818;SDS011;8010;53.986;12.106;2022-12-15T15:49:38;24.07;;;12.00;;
15818;SDS011;8010;53.986;12.106;2022-12-15T15:52:04;22.80;;;12.70;;
15818;SDS011;8010;53.986;12.106;2022-12-15T15:54:31;20.57;;;12.10;;
15818;SDS011;8010;53.986;12.106;2022-12-15T15:56:59;20.27;;;11.67;;
15818;SDS011;8010;53.986;12.106;2022-12-15T15:59:25;25.40;;;12.73;;
15818;SDS011;8010;53.986;12.106;2022-12-15T16:01:53;21.07;;;11.67;;
15818;SDS011;8010;53.986;12.106;2022-12-15T16:04:23;19.17;;;10.87;;
15818;SDS011;8010;53.986;12.106;2022-12-15T16:06:49;21.97;;;12.40;;
15818;SDS011;8010;53.986;12.106;2022-12-15T16:09:16;20.27;;;11.27;;
15818;SDS011;8010;53.986;12.106;2022-12-15T16:11:42;20.43;;;11.83;;
15818;SDS011;8010;53.986;12.106;2022-12-15T16:14:12;18.70;;;11.27;;
15818;SDS011;8010;53.986;12.106;2022-12-15T16:16:39;19.70;;;11.53;;
15818;SDS011;8010;53.986;12.106;2022-12-15T16:19:05;18.37;;;11.23;;
15818;SDS011;8010;53.986;12.106;2022-12-15T16:21:31;20.37;;;11.87;;
15818;SDS011;8010;53.986;12.106;2022-12-15T16:23:58;25.37;;;13.17;;
15818;SDS011;8010;53.986;12.106;2022-12-15T16:26:28;18.93;;;11.07;;
15818;SDS011;8010;53.986;12.106;2022-12-15T16:28:55;20.97;;;11.60;;
15818;SDS011;8010;53.986;12.106;2022-12-15T16:31:31;20.13;;;11.17;;
15818;SDS011;8010;53.986;12.106;2022-12-15T16:34:00;22.07;;;12.60;;
15818;SDS011;8010;53.986;12.106;2022-12-15T16:36:30;21.40;;;11.87;;
15818;SDS011;8010;53.986;12.106;2022-12-15T16:38:56;18.33;;;10.83;;
15818;SDS011;8010;53.986;12.106;2022-12-15T16:41:21;22.67;;;12.73;;
15818;SDS011;8010;53.986;12.106;2022-12-15T16:43:47;23.23;;;11.73;;
15818;SDS011;8010;53.986;12.106;2022-12-15T16:46:13;19.10;;;11.80;;
15818;SDS011;8010;53.986;12.106;2022-12-15T16:48:40;20.07;;;12.43;;
15818;SDS011;8010;53.986;12.106;2022-12-15T16:51:07;21.13;;;11.50;;
15818;SDS011;8010;53.986;12.106;2022-12-15T16:53:35;24.53;;;14.20;;
15818;SDS011;8010;53.986;12.106;2022-12-15T16:56:05;24.30;;;14.03;;
15818;SDS011;8010;53.986;12.106;2022-12-15T16:58:32;26.43;;;14.83;;
15818;SDS011;8010;53.986;12.106;2022-12-15T17:00:59;27.50;;;14.70;;
15818;SDS011;8010;53.986;12.106;2022-12-15T17:03:25;25.10;;;13.13;;
15818;SDS011;8010;53.986;12.106;2022-12-15T17:05:52;24.63;;;13.27;;